sensor_id;sensor_type;location;lat;lon;timestamp;pressure;altitude;pressure_sealevel;temperature;humidity
51496;BME280;37572;52.094;4.870;2023-04-23T00:02:09;100754.69;;;12.02;62.16
51496;BME280;37572;52.094;4.870;2023-04-23T00:04:38;100751.03;;;12.03;62.05
51496;BME280;37572;52.094;4.870;2023-04-23T00:07:04;100743.00;;;12.03;62.05
51496;BME280;37572;52.094;4.870;2023-04-23T00:09:30;100741.16;;;12.03;62.24
51496;BME280;37572;52.094;4.870;2023-04-23T00:11:58;100735.00;;;12.03;62.23
51496;BME280;37572;52.094;4.870;2023-04-23T00:14:23;100736.00;;;12.02;62.37
51496;BME280;37572;52.094;4.870;2023-04-23T00:16:49;100736.84;;;12.02;62.28
51496;BME280;37572;52.094;4.870;2023-04-23T00:19:15;100734.50;;;11.99;62.52
51496;BME280;37572;52.094;4.870;2023-04-23T00:21:40;100735.84;;;11.95;62.53
51496;BME280;37572;52.094;4.870;2023-04-23T00:24:06;100731.00;;;11.99;62.61
51496;BME280;37572;52.094;4.870;2023-04-23T00:26:31;100731.69;;;12.01;62.53
51496;BME280;37572;52.094;4.870;2023-04-23T00:28:56;100733.50;;;12.00;62.64
51496;BME280;37572;52.094;4.870;2023-04-23T00:31:22;100724.16;;;12.05;62.50
51496;BME280;37572;52.094;4.870;2023-04-23T00:33:48;100727.66;;;12.05;62.40
51496;BME280;37572;52.094;4.870;2023-04-23T00:36:13;100727.50;;;12.07;62.43
51496;BME280;37572;52.094;4.870;2023-04-23T00:38:39;100718.81;;;12.05;62.80
51496;BME280;37572;52.094;4.870;2023-04-23T00:41:04;100718.50;;;12.08;62.57
51496;BME280;37572;52.094;4.870;2023-04-23T00:43:31;100711.16;;;12.10;62.60
51496;BME280;37572;52.094;4.870;2023-04-23T00:45:56;100704.81;;;12.11;62.66
51496;BME280;37572;52.094;4.870;2023-04-23T00:48:22;100705.31;;;12.14;62.58
51496;BME280;37572;52.094;4.870;2023-04-23T00:50:48;100702.63;;;12.14;62.58
51496;BME280;37572;52.094;4.870;2023-04-23T00:53:13;100700.63;;;12.16;62.90
51496;BME280;37572;52.094;4.870;2023-04-23T00:55:39;100697.78;;;12.18;62.41
51496;BME280;37572;52.094;4.870;2023-04-23T00:58:04;100693.75;;;12.22;62.52
51496;BME280;37572;52.094;4.870;2023-04-23T01:00:30;100690.59;;;12.27;62.53
51496;BME280;37572;52.094;4.870;2023-04-23T01:02:57;100691.41;;;12.27;62.59
51496;BME280;37572;52.094;4.870;2023-04-23T01:05:23;100689.94;;;12.25;62.47
51496;BME280;37572;52.094;4.870;2023-04-23T01:07:50;100683.41;;;12.19;62.67
51496;BME280;37572;52.094;4.870;2023-04-23T01:10:16;100674.91;;;12.24;62.56
51496;BME280;37572;52.094;4.870;2023-04-23T01:12:41;100679.25;;;12.25;62.41
51496;BME280;37572;52.094;4.870;2023-04-23T01:15:07;100680.56;;;12.29;62.38
51496;BME280;37572;52.094;4.870;2023-04-23T01:17:33;100676.25;;;12.28;62.38
51496;BME280;37572;52.094;4.870;2023-04-23T01:19:58;100672.91;;;12.26;62.30
51496;BME280;37572;52.094;4.870;2023-04-23T01:22:23;100670.06;;;12.27;62.58
51496;BME280;37572;52.094;4.870;2023-04-23T01:24:49;100660.22;;;12.28;62.40
51496;BME280;37572;52.094;4.870;2023-04-23T01:27:15;100664.72;;;12.27;62.47
51496;BME280;37572;52.094;4.870;2023-04-23T01:29:41;100665.41;;;12.29;62.36
51496;BME280;37572;52.094;4.870;2023-04-23T01:32:07;100661.22;;;12.27;62.39
51496;BME280;37572;52.094;4.870;2023-04-23T01:34:33;100663.91;;;12.27;62.62
51496;BME280;37572;52.094;4.870;2023-04-23T01:36:59;100666.91;;;12.24;62.74
51496;BME280;37572;52.094;4.870;2023-04-23T01:39:26;100658.88;;;12.24;62.63
51496;BME280;37572;52.094;4.870;2023-04-23T01:41:52;100657.72;;;12.26;62.85
51496;BME280;37572;52.094;4.870;2023-04-23T01:44:17;100655.41;;;12.23;62.74
51496;BME280;37572;52.094;4.870;2023-04-23T01:46:43;100660.22;;;12.28;62.57
51496;BME280;37572;52.094;4.870;2023-04-23T01:49:08;100661.56;;;12.24;62.57
51496;BME280;37572;52.094;4.870;2023-04-23T01:51:34;100656.06;;;12.25;62.63
51496;BME280;37572;52.094;4.870;2023-04-23T01:53:59;100641.22;;;12.23;62.41
51496;BME280;37572;52.094;4.870;2023-04-23T01:56:26;100656.06;;;12.25;62.58
51496;BME280;37572;52.094;4.870;2023-04-23T01:58:52;100643.34;;;12.27;62.30
51496;BME280;37572;52.094;4.870;2023-04-23T02:01:18;100637.19;;;12.27;62.31
51496;BME280;37572;52.094;4.870;2023-04-23T02:03:44;100644.22;;;12.28;62.59
51496;BME280;37572;52.094;4.870;2023-04-23T02:06:10;100643.03;;;12.22;62.24
51496;BME280;37572;52.094;4.870;2023-04-23T02:08:35;100628.88;;;12.21;62.43
51496;BME280;37572;52.094;4.870;2023-04-23T02:11:01;100636.72;;;12.23;62.47
51496;BME280;37572;52.094;4.870;2023-04-23T02:13:26;100631.03;;;12.26;62.37
51496;BME280;37572;52.094;4.870;2023-04-23T02:15:51;100628.03;;;12.29;62.38
51496;BME280;37572;52.094;4.870;2023-04-23T02:18:17;100639.03;;;12.34;62.06
51496;BME280;37572;52.094;4.870;2023-04-23T02:20:42;100630.97;;;12.43;61.88
51496;BME280;37572;52.094;4.870;2023-04-23T02:23:08;100628.81;;;12.38;62.01
51496;BME280;37572;52.094;4.870;2023-04-23T02:25:35;100627.63;;;12.40;61.86
51496;BME280;37572;52.094;4.870;2023-04-23T02:28:03;100632.16;;;12.40;61.81
51496;BME280;37572;52.094;4.870;2023-04-23T02:30:30;100628.47;;;12.41;61.73
51496;BME280;37572;52.094;4.870;2023-04-23T02:32:56;100619.63;;;12.40;61.98
51496;BME280;37572;52.094;4.870;2023-04-23T02:35:21;100634.47;;;12.43;61.77
51496;BME280;37572;52.094;4.870;2023-04-23T02:37:48;100640.13;;;12.48;61.75
51496;BME280;37572;52.094;4.870;2023-04-23T02:40:13;100624.94;;;12.49;61.71
51496;BME280;37572;52.094;4.870;2023-04-23T02:42:38;100630.09;;;12.50;61.50
51496;BME280;37572;52.094;4.870;2023-04-23T02:45:04;100631.78;;;12.51;61.43
51496;BME280;37572;52.094;4.870;2023-04-23T02:47:29;100620.28;;;12.51;61.61
51496;BME280;37572;52.094;4.870;2023-04-23T02:49:55;100629.09;;;12.51;61.43
51496;BME280;37572;52.094;4.870;2023-04-23T02:52:21;100631.47;;;12.46;61.30
51496;BME280;37572;52.094;4.870;2023-04-23T02:54:46;100622.97;;;12.43;61.51
51496;BME280;37572;52.094;4.870;2023-04-23T02:57:12;100627.63;;;12.40;61.74
51496;BME280;37572;52.094;4.870;2023-04-23T02:59:39;100631.63;;;12.45;61.63
51496;BME280;37572;52.094;4.870;2023-04-23T03:02:05;100635.44;;;12.50;61.56
51496;BME280;37572;52.094;4.870;2023-04-23T03:04:30;100638.97;;;12.51;61.42
51496;BME280;37572;52.094;4.870;2023-04-23T03:06:55;100634.94;;;12.55;61.42
51496;BME280;37572;52.094;4.870;2023-04-23T03:09:21;100636.94;;;12.53;61.44
51496;BME280;37572;52.094;4.870;2023-04-23T03:11:46;100629.28;;;12.50;61.57
51496;BME280;37572;52.094;4.870;2023-04-23T03:14:12;100630.59;;;12.54;61.57
51496;BME280;37572;52.094;4.870;2023-04-23T03:16:37;100625.59;;;12.51;61.55
51496;BME280;37572;52.094;4.870;2023-04-23T03:19:02;100626.13;;;12.46;61.45
51496;BME280;37572;52.094;4.870;2023-04-23T03:21:28;100626.78;;;12.48;61.48
51496;BME280;37572;52.094;4.870;2023-04-23T03:23:53;100617.09;;;12.47;61.37
51496;BME280;37572;52.094;4.870;2023-04-23T03:26:19;100624.94;;;12.49;61.38
51496;BME280;37572;52.094;4.870;2023-04-23T03:28:44;100627.59;;;12.49;61.32
51496;BME280;37572;52.094;4.870;2023-04-23T03:31:09;100618.75;;;12.48;61.35
51496;BME280;37572;52.094;4.870;2023-04-23T03:33:35;100617.78;;;12.49;61.20
51496;BME280;37572;52.094;4.870;2023-04-23T03:36:00;100618.41;;;12.51;61.41
51496;BME280;37572;52.094;4.870;2023-04-23T03:38:25;100617.91;;;12.56;61.11
51496;BME280;37572;52.094;4.870;2023-04-23T03:40:51;100615.09;;;12.49;61.25
51496;BME280;37572;52.094;4.870;2023-04-23T03:43:16;100615.91;;;12.50;61.19
51496;BME280;37572;52.094;4.870;2023-04-23T03:45:41;100609.28;;;12.46;61.17
51496;BME280;37572;52.094;4.870;2023-04-23T03:48:07;100605.91;;;12.44;61.33
51496;BME280;37572;52.094;4.870;2023-04-23T03:50:32;100597.78;;;12.37;61.30
51496;BME280;37572;52.094;4.870;2023-04-23T03:53:02;100597.78;;;12.37;61.17
51496;BME280;37572;52.094;4.870;2023-04-23T03:55:28;100599.63;;;12.36;61.37
51496;BME280;37572;52.094;4.870;2023-04-23T03:57:53;100595.44;;;12.34;61.62
51496;BME280;37572;52.094;4.870;2023-04-23T04:00:19;100604.13;;;12.36;61.61
51496;BME280;37572;52.094;4.870;2023-04-23T04:02:44;100606.81;;;12.36;61.56
51496;BME280;37572;52.094;4.870;2023-04-23T04:05:10;100605.78;;;12.37;61.53
51496;BME280;37572;52.094;4.870;2023-04-23T04:07:35;100610.78;;;12.40;61.67
51496;BME280;37572;52.094;4.870;2023-04-23T04:10:02;100605.91;;;12.44;61.46
51496;BME280;37572;52.094;4.870;2023-04-23T04:12:29;100608.75;;;12.42;61.49
51496;BME280;37572;52.094;4.870;2023-04-23T04:14:54;100604.78;;;12.38;61.83
51496;BME280;37572;52.094;4.870;2023-04-23T04:17:19;100607.94;;;12.42;61.53
51496;BME280;37572;52.094;4.870;2023-04-23T04:19:45;100613.44;;;12.40;61.50
51496;BME280;37572;52.094;4.870;2023-04-23T04:22:10;100610.78;;;12.40;61.60
51496;BME280;37572;52.094;4.870;2023-04-23T04:24:36;100603.78;;;12.39;61.74
51496;BME280;37572;52.094;4.870;2023-04-23T04:27:02;100604.97;;;12.36;61.81
51496;BME280;37572;52.094;4.870;2023-04-23T04:29:27;100606.47;;;12.39;61.72
51496;BME280;37572;52.094;4.870;2023-04-23T04:31:53;100610.63;;;12.42;61.65
51496;BME280;37572;52.094;4.870;2023-04-23T04:34:19;100611.94;;;12.46;61.54
51496;BME280;37572;52.094;4.870;2023-04-23T04:36:44;100614.63;;;12.46;61.51
51496;BME280;37572;52.094;4.870;2023-04-23T04:39:10;100613.94;;;12.44;61.82
51496;BME280;37572;52.094;4.870;2023-04-23T04:41:38;100610.09;;;12.46;61.47
51496;BME280;37572;52.094;4.870;2023-04-23T04:44:03;100611.75;;;12.47;61.54
51496;BME280;37572;52.094;4.870;2023-04-23T04:46:28;100608.91;;;12.49;61.31
51496;BME280;37572;52.094;4.870;2023-04-23T04:48:55;100602.75;;;12.48;61.50
51496;BME280;37572;52.094;4.870;2023-04-23T04:51:21;100607.44;;;12.46;61.38
51496;BME280;37572;52.094;4.870;2023-04-23T04:53:47;100603.41;;;12.42;61.25
51496;BME280;37572;52.094;4.870;2023-04-23T04:56:12;100607.78;;;12.43;61.22
51496;BME280;37572;52.094;4.870;2023-04-23T04:58:37;100602.59;;;12.42;61.20
51496;BME280;37572;52.094;4.870;2023-04-23T05:01:03;100611.59;;;12.40;61.13
51496;BME280;37572;52.094;4.870;2023-04-23T05:03:29;100608.44;;;12.37;61.46
51496;BME280;37572;52.094;4.870;2023-04-23T05:05:54;100601.78;;;12.41;61.38
51496;BME280;37572;52.094;4.870;2023-04-23T05:08:20;100609.75;;;12.49;61.22
51496;BME280;37572;52.094;4.870;2023-04-23T05:10:46;100605.38;;;12.56;61.17
51496;BME280;37572;52.094;4.870;2023-04-23T05:13:11;100600.69;;;12.58;60.93
51496;BME280;37572;52.094;4.870;2023-04-23T05:15:36;100605.16;;;12.66;60.81
51496;BME280;37572;52.094;4.870;2023-04-23T05:18:03;100605.25;;;12.81;60.43
51496;BME280;37572;52.094;4.870;2023-04-23T05:20:29;100605.16;;;12.98;60.11
51496;BME280;37572;52.094;4.870;2023-04-23T05:22:55;100616.75;;;13.13;59.82
51496;BME280;37572;52.094;4.870;2023-04-23T05:25:23;100615.88;;;13.21;59.27
51496;BME280;37572;52.094;4.870;2023-04-23T05:27:48;100620.72;;;13.17;59.78
51496;BME280;37572;52.094;4.870;2023-04-23T05:30:13;100618.03;;;13.17;59.85
51496;BME280;37572;52.094;4.870;2023-04-23T05:32:39;100620.59;;;13.10;60.12
51496;BME280;37572;52.094;4.870;2023-04-23T05:35:05;100612.91;;;13.16;60.24
51496;BME280;37572;52.094;4.870;2023-04-23T05:37:31;100617.34;;;13.23;60.07
51496;BME280;37572;52.094;4.870;2023-04-23T05:39:56;100609.31;;;13.23;60.21
51496;BME280;37572;52.094;4.870;2023-04-23T05:42:25;100597.03;;;13.37;60.02
51496;BME280;37572;52.094;4.870;2023-04-23T05:44:50;100603.63;;;13.49;60.11
51496;BME280;37572;52.094;4.870;2023-04-23T05:47:15;100605.13;;;13.67;60.22
51496;BME280;37572;52.094;4.870;2023-04-23T05:49:41;100601.50;;;13.83;59.85
51496;BME280;37572;52.094;4.870;2023-04-23T05:52:06;100610.19;;;14.00;60.09
51496;BME280;37572;52.094;4.870;2023-04-23T05:54:31;100612.41;;;14.11;59.77
51496;BME280;37572;52.094;4.870;2023-04-23T05:56:57;100610.28;;;14.21;59.50
51496;BME280;37572;52.094;4.870;2023-04-23T05:59:23;100608.34;;;14.30;59.49
51496;BME280;37572;52.094;4.870;2023-04-23T06:01:48;100609.09;;;14.39;59.07
51496;BME280;37572;52.094;4.870;2023-04-23T06:04:15;100605.28;;;14.48;58.87
51496;BME280;37572;52.094;4.870;2023-04-23T06:06:41;100600.28;;;14.60;58.88
51496;BME280;37572;52.094;4.870;2023-04-23T06:09:07;100603.75;;;14.75;58.92
51496;BME280;37572;52.094;4.870;2023-04-23T06:11:33;100599.59;;;14.88;58.42
51496;BME280;37572;52.094;4.870;2023-04-23T06:14:00;100600.19;;;15.05;58.08
51496;BME280;37572;52.094;4.870;2023-04-23T06:16:26;100591.44;;;15.17;57.54
51496;BME280;37572;52.094;4.870;2023-04-23T06:18:51;100602.53;;;15.36;57.47
51496;BME280;37572;52.094;4.870;2023-04-23T06:21:16;100593.84;;;15.56;57.32
51496;BME280;37572;52.094;4.870;2023-04-23T06:23:42;100591.69;;;15.72;56.54
51496;BME280;37572;52.094;4.870;2023-04-23T06:26:07;100587.28;;;15.86;56.08
51496;BME280;37572;52.094;4.870;2023-04-23T06:28:32;100583.31;;;16.11;56.24
51496;BME280;37572;52.094;4.870;2023-04-23T06:30:58;100585.69;;;16.34;55.50
51496;BME280;37572;52.094;4.870;2023-04-23T06:33:23;100587.22;;;16.56;55.01
51496;BME280;37572;52.094;4.870;2023-04-23T06:35:48;100585.28;;;16.85;54.46
51496;BME280;37572;52.094;4.870;2023-04-23T06:38:14;100576.22;;;17.13;54.31
51496;BME280;37572;52.094;4.870;2023-04-23T06:40:39;100575.03;;;17.49;53.71
51496;BME280;37572;52.094;4.870;2023-04-23T06:43:04;100583.88;;;17.83;53.07
51496;BME280;37572;52.094;4.870;2023-04-23T06:45:33;100588.44;;;18.09;51.85
51496;BME280;37572;52.094;4.870;2023-04-23T06:47:59;100581.31;;;18.28;50.86
51496;BME280;37572;52.094;4.870;2023-04-23T06:50:24;100574.00;;;18.48;50.50
51496;BME280;37572;52.094;4.870;2023-04-23T06:52:50;100576.13;;;18.78;50.36
51496;BME280;37572;52.094;4.870;2023-04-23T06:55:16;100577.09;;;18.97;49.33
51496;BME280;37572;52.094;4.870;2023-04-23T06:57:42;100592.28;;;19.23;49.16
51496;BME280;37572;52.094;4.870;2023-04-23T07:00:08;100569.69;;;19.43;47.98
51496;BME280;37572;52.094;4.870;2023-04-23T07:02:35;100575.88;;;19.50;47.66
51496;BME280;37572;52.094;4.870;2023-04-23T07:05:00;100578.22;;;19.65;47.78
51496;BME280;37572;52.094;4.870;2023-04-23T07:07:25;100567.28;;;19.85;47.43
51496;BME280;37572;52.094;4.870;2023-04-23T07:09:51;100574.78;;;20.20;47.43
51496;BME280;37572;52.094;4.870;2023-04-23T07:12:16;100575.34;;;20.59;46.99
51496;BME280;37572;52.094;4.870;2023-04-23T07:14:42;100572.75;;;20.83;46.19
51496;BME280;37572;52.094;4.870;2023-04-23T07:17:07;100562.69;;;20.90;45.28
51496;BME280;37572;52.094;4.870;2023-04-23T07:19:32;100567.75;;;20.98;45.12
51496;BME280;37572;52.094;4.870;2023-04-23T07:21:58;100560.56;;;20.92;44.53
51496;BME280;37572;52.094;4.870;2023-04-23T07:24:23;100550.56;;;20.93;44.41
51496;BME280;37572;52.094;4.870;2023-04-23T07:26:50;100554.59;;;21.02;44.94
51496;BME280;37572;52.094;4.870;2023-04-23T07:29:15;100551.94;;;21.25;45.10
51496;BME280;37572;52.094;4.870;2023-04-23T07:31:41;100558.81;;;21.52;43.65
51496;BME280;37572;52.094;4.870;2023-04-23T07:34:06;100558.47;;;21.72;43.78
51496;BME280;37572;52.094;4.870;2023-04-23T07:36:32;100546.66;;;21.78;43.66
51496;BME280;37572;52.094;4.870;2023-04-23T07:38:57;100552.94;;;21.67;43.31
51496;BME280;37572;52.094;4.870;2023-04-23T07:41:23;100550.50;;;21.35;43.49
51496;BME280;37572;52.094;4.870;2023-04-23T07:43:49;100551.78;;;21.09;44.40
51496;BME280;37572;52.094;4.870;2023-04-23T07:46:14;100549.75;;;20.92;44.43
51496;BME280;37572;52.094;4.870;2023-04-23T07:48:40;100558.63;;;20.81;44.63
51496;BME280;37572;52.094;4.870;2023-04-23T07:51:05;100552.28;;;20.57;45.10
51496;BME280;37572;52.094;4.870;2023-04-23T07:53:31;100554.28;;;20.31;45.56
51496;BME280;37572;52.094;4.870;2023-04-23T07:55:56;100550.75;;;20.12;45.78
51496;BME280;37572;52.094;4.870;2023-04-23T07:58:23;100553.63;;;20.17;46.46
51496;BME280;37572;52.094;4.870;2023-04-23T08:00:49;100552.53;;;20.37;45.92
51496;BME280;37572;52.094;4.870;2023-04-23T08:03:14;100556.34;;;20.47;45.52
51496;BME280;37572;52.094;4.870;2023-04-23T08:05:40;100547.56;;;20.52;45.72
51496;BME280;37572;52.094;4.870;2023-04-23T08:08:06;100544.34;;;20.43;45.79
51496;BME280;37572;52.094;4.870;2023-04-23T08:10:32;100539.63;;;20.39;46.12
51496;BME280;37572;52.094;4.870;2023-04-23T08:12:58;100535.56;;;20.29;45.56
51496;BME280;37572;52.094;4.870;2023-04-23T08:15:23;100537.69;;;20.27;45.74
51496;BME280;37572;52.094;4.870;2023-04-23T08:17:48;100526.72;;;20.22;45.97
51496;BME280;37572;52.094;4.870;2023-04-23T08:20:14;100530.09;;;20.18;46.30
51496;BME280;37572;52.094;4.870;2023-04-23T08:22:39;100530.78;;;20.13;46.42
51496;BME280;37572;52.094;4.870;2023-04-23T08:25:05;100515.56;;;20.00;46.49
51496;BME280;37572;52.094;4.870;2023-04-23T08:27:30;100538.44;;;19.98;46.95
51496;BME280;37572;52.094;4.870;2023-04-23T08:29:55;100533.56;;;19.88;46.67
51496;BME280;37572;52.094;4.870;2023-04-23T08:32:21;100529.22;;;19.62;47.19
51496;BME280;37572;52.094;4.870;2023-04-23T08:34:46;100531.81;;;19.50;47.66
51496;BME280;37572;52.094;4.870;2023-04-23T08:37:11;100531.53;;;19.58;47.68
51496;BME280;37572;52.094;4.870;2023-04-23T08:39:37;100536.50;;;19.61;47.40
51496;BME280;37572;52.094;4.870;2023-04-23T08:45:20;100533.09;;;20.09;47.43
51496;BME280;37572;52.094;4.870;2023-04-23T08:47:46;100537.97;;;20.38;46.91
51496;BME280;37572;52.094;4.870;2023-04-23T08:50:14;100531.94;;;20.54;46.21
51496;BME280;37572;52.094;4.870;2023-04-23T08:52:49;100530.97;;;20.67;46.12
51496;BME280;37572;52.094;4.870;2023-04-23T08:55:17;100542.13;;;20.70;45.77
51496;BME280;37572;52.094;4.870;2023-04-23T08:57:43;100536.97;;;20.69;45.46
51496;BME280;37572;52.094;4.870;2023-04-23T09:00:10;100538.84;;;20.68;46.04
51496;BME280;37572;52.094;4.870;2023-04-23T09:02:39;100536.72;;;20.70;46.01
51496;BME280;37572;52.094;4.870;2023-04-23T09:05:04;100526.03;;;20.76;46.03
51496;BME280;37572;52.094;4.870;2023-04-23T09:07:30;100538.97;;;20.74;45.52
51496;BME280;37572;52.094;4.870;2023-04-23T09:09:55;100540.03;;;20.73;45.64
51496;BME280;37572;52.094;4.870;2023-04-23T09:12:21;100536.50;;;20.72;45.44
51496;BME280;37572;52.094;4.870;2023-04-23T09:14:48;100536.97;;;20.69;45.30
51496;BME280;37572;52.094;4.870;2023-04-23T09:17:14;100530.63;;;20.57;45.05
51496;BME280;37572;52.094;4.870;2023-04-23T09:19:40;100526.63;;;20.47;45.26
51496;BME280;37572;52.094;4.870;2023-04-23T09:22:05;100530.00;;;20.43;45.65
51496;BME280;37572;52.094;4.870;2023-04-23T09:24:33;100518.59;;;20.41;45.79
51496;BME280;37572;52.094;4.870;2023-04-23T09:26:58;100529.91;;;20.49;45.97
51496;BME280;37572;52.094;4.870;2023-04-23T09:29:23;100522.06;;;20.60;45.57
51496;BME280;37572;52.094;4.870;2023-04-23T09:31:51;100521.34;;;20.52;45.12
51496;BME280;37572;52.094;4.870;2023-04-23T09:34:24;100528.44;;;20.35;44.78
51496;BME280;37572;52.094;4.870;2023-04-23T09:36:50;100527.91;;;20.26;45.40
51496;BME280;37572;52.094;4.870;2023-04-23T09:39:21;100508.16;;;20.26;45.39
51496;BME280;37572;52.094;4.870;2023-04-23T09:41:46;100506.06;;;20.28;45.37
51496;BME280;37572;52.094;4.870;2023-04-23T09:44:17;100509.97;;;20.32;45.05
51496;BME280;37572;52.094;4.870;2023-04-23T09:46:43;100521.47;;;20.27;44.74
51496;BME280;37572;52.094;4.870;2023-04-23T09:49:09;100514.09;;;20.34;45.32
51496;BME280;37572;52.094;4.870;2023-04-23T09:51:40;100514.97;;;20.47;44.90
51496;BME280;37572;52.094;4.870;2023-04-23T09:56:37;100519.28;;;20.66;44.19
51496;BME280;37572;52.094;4.870;2023-04-23T09:59:20;100511.47;;;20.58;44.53
51496;BME280;37572;52.094;4.870;2023-04-23T10:01:45;100514.41;;;20.57;44.95
51496;BME280;37572;52.094;4.870;2023-04-23T10:04:12;100505.19;;;20.64;45.08
51496;BME280;37572;52.094;4.870;2023-04-23T10:06:41;100502.75;;;20.75;44.68
51496;BME280;37572;52.094;4.870;2023-04-23T10:09:07;100503.06;;;20.66;43.48
51496;BME280;37572;52.094;4.870;2023-04-23T10:11:33;100505.47;;;20.56;43.61
51496;BME280;37572;52.094;4.870;2023-04-23T10:13:58;100493.94;;;20.49;44.02
51496;BME280;37572;52.094;4.870;2023-04-23T10:16:23;100505.53;;;20.38;44.05
51496;BME280;37572;52.094;4.870;2023-04-23T10:18:52;100497.63;;;20.36;44.09
51496;BME280;37572;52.094;4.870;2023-04-23T10:21:19;100498.72;;;20.35;44.28
51496;BME280;37572;52.094;4.870;2023-04-23T10:23:49;100497.78;;;20.41;44.40
51496;BME280;37572;52.094;4.870;2023-04-23T10:26:15;100494.03;;;20.42;43.88
51496;BME280;37572;52.094;4.870;2023-04-23T10:28:45;100493.94;;;20.49;43.77
51496;BME280;37572;52.094;4.870;2023-04-23T10:31:11;100485.94;;;20.54;43.87
51496;BME280;37572;52.094;4.870;2023-04-23T10:33:36;100486.09;;;20.59;43.83
51496;BME280;37572;52.094;4.870;2023-04-23T10:36:02;100483.53;;;20.64;43.54
51496;BME280;37572;52.094;4.870;2023-04-23T10:38:28;100474.50;;;20.70;43.69
51496;BME280;37572;52.094;4.870;2023-04-23T10:40:55;100470.63;;;20.78;43.42
51496;BME280;37572;52.094;4.870;2023-04-23T10:43:22;100476.91;;;20.91;43.35
51496;BME280;37572;52.094;4.870;2023-04-23T10:45:48;100466.91;;;21.03;43.17
51496;BME280;37572;52.094;4.870;2023-04-23T10:48:14;100464.09;;;21.10;42.62
51496;BME280;37572;52.094;4.870;2023-04-23T10:50:39;100466.34;;;21.13;42.38
51496;BME280;37572;52.094;4.870;2023-04-23T10:53:17;100449.97;;;21.07;41.97
51496;BME280;37572;52.094;4.870;2023-04-23T10:55:42;100439.63;;;21.04;42.42
51496;BME280;37572;52.094;4.870;2023-04-23T10:58:08;100438.56;;;21.17;42.80
51496;BME280;37572;52.094;4.870;2023-04-23T11:03:29;100451.06;;;21.30;41.56
51496;BME280;37572;52.094;4.870;2023-04-23T11:05:55;100439.72;;;21.33;41.70
51496;BME280;37572;52.094;4.870;2023-04-23T11:08:20;100439.72;;;21.33;41.34
51496;BME280;37572;52.094;4.870;2023-04-23T11:10:55;100434.31;;;21.33;41.33
51496;BME280;37572;52.094;4.870;2023-04-23T11:13:23;100434.91;;;21.35;41.36
51496;BME280;37572;52.094;4.870;2023-04-23T11:16:16;100432.69;;;21.32;40.84
51496;BME280;37572;52.094;4.870;2023-04-23T11:19:07;100421.00;;;21.20;40.63
51496;BME280;37572;52.094;4.870;2023-04-23T11:21:57;100410.31;;;21.13;40.84
51496;BME280;37572;52.094;4.870;2023-04-23T11:24:26;100412.31;;;21.06;40.57
51496;BME280;37572;52.094;4.870;2023-04-23T11:26:51;100400.78;;;21.11;41.05
51496;BME280;37572;52.094;4.870;2023-04-23T11:29:21;100399.13;;;21.21;40.59
51496;BME280;37572;52.094;4.870;2023-04-23T11:31:48;100402.66;;;21.34;40.54
51496;BME280;37572;52.094;4.870;2023-04-23T11:34:15;100392.88;;;21.33;40.38
51496;BME280;37572;52.094;4.870;2023-04-23T11:36:41;100389.94;;;21.34;40.48
51496;BME280;37572;52.094;4.870;2023-04-23T11:39:06;100386.53;;;21.27;40.29
51496;BME280;37572;52.094;4.870;2023-04-23T11:41:33;100376.88;;;21.19;40.63
51496;BME280;37572;52.094;4.870;2023-04-23T11:43:59;100378.66;;;21.14;40.29
51496;BME280;37572;52.094;4.870;2023-04-23T11:46:24;100376.78;;;21.14;40.80
51496;BME280;37572;52.094;4.870;2023-04-23T11:48:50;100380.91;;;21.17;41.02
51496;BME280;37572;52.094;4.870;2023-04-23T11:51:15;100375.59;;;21.10;40.90
51496;BME280;37572;52.094;4.870;2023-04-23T11:53:47;100363.34;;;21.07;40.59
51496;BME280;37572;52.094;4.870;2023-04-23T11:56:16;100367.97;;;21.07;40.32
51496;BME280;37572;52.094;4.870;2023-04-23T11:58:41;100361.72;;;21.18;40.62
51496;BME280;37572;52.094;4.870;2023-04-23T12:01:07;100360.72;;;21.36;40.51
51496;BME280;37572;52.094;4.870;2023-04-23T12:03:33;100352.84;;;21.58;40.15
51496;BME280;37572;52.094;4.870;2023-04-23T12:05:58;100362.63;;;21.76;40.00
51496;BME280;37572;52.094;4.870;2023-04-23T12:08:23;100349.41;;;21.92;39.54
51496;BME280;37572;52.094;4.870;2023-04-23T12:10:52;100347.69;;;22.03;39.36
51496;BME280;37572;52.094;4.870;2023-04-23T12:13:22;100349.69;;;22.07;38.98
51496;BME280;37572;52.094;4.870;2023-04-23T12:15:50;100350.16;;;22.04;38.38
51496;BME280;37572;52.094;4.870;2023-04-23T12:18:16;100350.88;;;21.99;38.87
51496;BME280;37572;52.094;4.870;2023-04-23T12:20:42;100329.22;;;22.16;39.30
51496;BME280;37572;52.094;4.870;2023-04-23T12:23:07;100331.66;;;22.30;38.33
51496;BME280;37572;52.094;4.870;2023-04-23T12:25:34;100330.44;;;22.38;38.43
51496;BME280;37572;52.094;4.870;2023-04-23T12:27:59;100321.78;;;22.58;38.86
51496;BME280;37572;52.094;4.870;2023-04-23T12:30:29;100327.03;;;22.81;38.38
51496;BME280;37572;52.094;4.870;2023-04-23T12:32:59;100322.94;;;22.79;38.11
51496;BME280;37572;52.094;4.870;2023-04-23T12:35:41;100314.41;;;22.70;37.86
51496;BME280;37572;52.094;4.870;2023-04-23T12:38:07;100312.66;;;22.64;38.40
51496;BME280;37572;52.094;4.870;2023-04-23T12:40:33;100307.66;;;22.56;37.73
51496;BME280;37572;52.094;4.870;2023-04-23T12:42:59;100307.75;;;22.44;37.89
51496;BME280;37572;52.094;4.870;2023-04-23T12:45:24;100297.94;;;22.26;37.81
51496;BME280;37572;52.094;4.870;2023-04-23T12:47:49;100292.84;;;22.12;38.26
51496;BME280;37572;52.094;4.870;2023-04-23T12:50:15;100298.81;;;21.97;38.72
51496;BME280;37572;52.094;4.870;2023-04-23T12:52:41;100299.44;;;21.88;38.98
51496;BME280;37572;52.094;4.870;2023-04-23T12:55:07;100300.16;;;21.83;39.04